Time;durP1;ratioP1;P1;durP2;ratioP2;P2;SDS_P1;SDS_P2;PMS_P1;PMS_P2;Temp;Humidity;BMP_temperature;BMP_pressure;BME280_temperature;BME280_humidity;BME280_pressure;Samples;Min_cycle;Max_cycle;Signal;HPM_P1;HPM_P2
2023/03/05 00:01:07;;;;;;;7.32;1.13;;;3.50;99.90;;;;;;5047494;28;20048;-66
2023/03/05 00:03:33;;;;;;;6.28;1.10;;;3.40;99.90;;;;;;5048886;28;20071;-66
2023/03/05 00:05:58;;;;;;;5.65;1.20;;;3.50;99.90;;;;;;5030855;28;20117;-66
2023/03/05 00:08:24;;;;;;;6.53;1.63;;;3.50;99.90;;;;;;5064864;28;20102;-65
2023/03/05 00:11:05;;;;;;;8.75;1.25;;;3.50;99.90;;;;;;5062752;28;20667;-65
2023/03/05 00:13:31;;;;;;;4.45;1.42;;;3.50;99.90;;;;;;5049083;28;20115;-65
2023/03/05 00:15:57;;;;;;;11.55;1.50;;;3.50;99.90;;;;;;5051869;28;20495;-65
2023/03/05 00:18:23;;;;;;;7.25;1.02;;;3.50;99.90;;;;;;5063642;28;20181;-65
2023/03/05 00:20:49;;;;;;;8.18;1.23;;;3.50;99.90;;;;;;5049558;28;20361;-64
2023/03/05 00:23:15;;;;;;;7.60;1.38;;;3.50;99.90;;;;;;5066338;28;20046;-64
2023/03/05 00:25:41;;;;;;;5.15;0.73;;;3.50;99.90;;;;;;5062858;28;20053;-65
2023/03/05 00:28:07;;;;;;;5.38;0.90;;;3.50;99.90;;;;;;5047188;28;20408;-64
2023/03/05 00:30:33;;;;;;;6.55;0.82;;;3.50;99.90;;;;;;5061557;28;20171;-65
2023/03/05 00:32:59;;;;;;;6.85;1.05;;;3.40;99.90;;;;;;5053425;28;20385;-65
2023/03/05 00:35:25;;;;;;;8.63;1.60;;;3.50;99.90;;;;;;5062447;28;20036;-64
2023/03/05 00:37:52;;;;;;;4.78;1.15;;;3.40;99.90;;;;;;5060620;28;20277;-65
2023/03/05 00:40:18;;;;;;;8.20;1.23;;;3.50;99.90;;;;;;5065553;28;20368;-65
2023/03/05 00:42:43;;;;;;;5.70;0.70;;;3.50;99.90;;;;;;5053889;28;20048;-65
2023/03/05 00:45:10;;;;;;;6.10;1.10;;;3.50;99.90;;;;;;5049547;28;20037;-65
2023/03/05 00:47:36;;;;;;;9.00;1.08;;;3.40;99.90;;;;;;5055057;28;20492;-65
2023/03/05 00:50:02;;;;;;;7.90;1.00;;;3.50;99.90;;;;;;5064462;28;20097;-65
2023/03/05 00:52:28;;;;;;;7.38;0.88;;;3.40;99.90;;;;;;5064125;28;20076;-65
2023/03/05 00:54:53;;;;;;;4.32;0.60;;;3.50;99.90;;;;;;5053217;28;20084;-66
2023/03/05 00:57:19;;;;;;;8.23;0.98;;;3.40;99.90;;;;;;5057267;28;20052;-66
2023/03/05 00:59:45;;;;;;;9.68;1.15;;;3.40;99.90;;;;;;5046986;28;20070;-66
2023/03/05 01:02:11;;;;;;;5.70;0.82;;;3.40;99.90;;;;;;5053285;28;20117;-65
2023/03/05 01:04:37;;;;;;;4.18;0.50;;;3.40;99.90;;;;;;5061752;28;20071;-65
2023/03/05 01:07:03;;;;;;;2.72;0.98;;;3.40;99.90;;;;;;5062845;28;20044;-65
2023/03/05 01:09:29;;;;;;;4.63;0.90;;;3.40;99.90;;;;;;5064353;28;20040;-65
2023/03/05 01:11:55;;;;;;;4.93;0.70;;;3.40;99.90;;;;;;5063722;28;20796;-65
2023/03/05 01:14:21;;;;;;;6.90;1.00;;;3.40;99.90;;;;;;5048362;28;20461;-65
2023/03/05 01:16:47;;;;;;;5.05;1.00;;;3.30;99.90;;;;;;5064707;28;20127;-65
2023/03/05 01:19:14;;;;;;;6.15;1.00;;;3.30;99.90;;;;;;5062047;28;20453;-64
2023/03/05 01:21:40;;;;;;;8.65;1.45;;;3.30;99.90;;;;;;5047425;28;20356;-65
2023/03/05 01:24:06;;;;;;;7.57;1.33;;;3.30;99.90;;;;;;5039303;28;20183;-65
2023/03/05 01:26:32;;;;;;;4.63;1.30;;;3.30;99.90;;;;;;5062114;28;20131;-65
2023/03/05 01:28:58;;;;;;;8.20;1.63;;;3.30;99.90;;;;;;5043582;28;20044;-65
2023/03/05 01:31:23;;;;;;;9.13;1.90;;;3.20;99.90;;;;;;5063437;28;20036;-65
2023/03/05 01:33:53;;;;;;;7.55;1.88;;;3.20;99.90;;;;;;5067024;28;20055;-65
2023/03/05 01:36:22;;;;;;;8.25;1.58;;;3.20;99.90;;;;;;5048702;28;20045;-65
2023/03/05 01:38:48;;;;;;;4.03;1.33;;;3.20;99.90;;;;;;5062877;28;20092;-65
2023/03/05 01:41:16;;;;;;;5.75;1.45;;;3.20;99.90;;;;;;5064484;28;20052;-64
2023/03/05 01:43:43;;;;;;;3.35;1.00;;;3.10;99.90;;;;;;5052804;28;20051;-64
2023/03/05 01:46:15;;;;;;;7.40;1.40;;;3.20;99.90;;;;;;5047946;28;20500;-64
2023/03/05 01:48:49;;;;;;;3.97;1.00;;;3.10;99.90;;;;;;5044304;28;20401;-64
2023/03/05 01:51:16;;;;;;;9.63;1.52;;;3.10;99.90;;;;;;5066071;28;20054;-65
2023/03/05 01:53:42;;;;;;;7.22;1.45;;;3.10;99.90;;;;;;5052808;28;20044;-64
2023/03/05 01:56:08;;;;;;;7.07;1.35;;;3.10;99.90;;;;;;5047481;28;20136;-65
2023/03/05 01:58:34;;;;;;;8.27;1.10;;;3.00;99.90;;;;;;5066587;28;20041;-65
2023/03/05 02:01:01;;;;;;;8.23;1.63;;;3.00;99.90;;;;;;5047141;28;20066;-65
2023/03/05 02:03:26;;;;;;;6.40;1.10;;;2.90;99.90;;;;;;5053063;28;20043;-65
2023/03/05 02:05:52;;;;;;;5.95;1.45;;;2.90;99.90;;;;;;5058909;28;20045;-65
2023/03/05 02:08:21;;;;;;;6.82;1.75;;;2.80;99.90;;;;;;5067891;28;20425;-65
2023/03/05 02:10:52;;;;;;;9.45;1.52;;;2.80;99.90;;;;;;5064583;28;20111;-65
2023/03/05 02:13:28;;;;;;;6.97;1.35;;;2.70;99.90;;;;;;5054064;28;20033;-65
2023/03/05 02:15:56;;;;;;;11.45;1.50;;;2.70;99.90;;;;;;5042975;28;20552;-64
2023/03/05 02:18:22;;;;;;;4.10;1.20;;;2.70;99.90;;;;;;5046504;28;20032;-65
2023/03/05 02:20:55;;;;;;;4.15;1.30;;;2.70;99.90;;;;;;5066264;28;20040;-65
2023/03/05 02:23:24;;;;;;;7.35;1.50;;;2.70;99.90;;;;;;5054438;28;20094;-65
2023/03/05 02:25:50;;;;;;;4.72;1.10;;;2.70;99.90;;;;;;5066708;28;20049;-65
2023/03/05 02:28:16;;;;;;;6.43;1.30;;;2.70;99.90;;;;;;5068439;28;20032;-65
2023/03/05 02:30:42;;;;;;;8.43;1.50;;;2.70;99.90;;;;;;5060902;28;20053;-65
2023/03/05 02:33:08;;;;;;;6.03;1.23;;;2.70;99.90;;;;;;5067591;28;20075;-65
2023/03/05 02:35:33;;;;;;;6.10;1.80;;;2.70;99.90;;;;;;5050935;28;20045;-65
2023/03/05 02:37:59;;;;;;;7.93;1.15;;;2.70;99.90;;;;;;5061005;28;20056;-65
2023/03/05 02:40:26;;;;;;;6.13;1.17;;;2.60;99.90;;;;;;5060006;28;20590;-64
2023/03/05 02:42:52;;;;;;;6.55;1.52;;;2.60;99.90;;;;;;5062678;28;20086;-64
2023/03/05 02:45:18;;;;;;;7.38;1.30;;;2.60;99.90;;;;;;5048596;28;20511;-65
2023/03/05 02:47:44;;;;;;;6.32;1.40;;;2.60;99.90;;;;;;5062728;28;20044;-65
2023/03/05 02:50:10;;;;;;;7.65;1.17;;;2.50;99.90;;;;;;5062640;28;20028;-65
2023/03/05 02:52:37;;;;;;;7.32;1.38;;;2.50;99.90;;;;;;5037105;28;20037;-65
2023/03/05 02:55:04;;;;;;;7.13;1.10;;;2.40;99.90;;;;;;5067094;28;20477;-65
2023/03/05 02:57:29;;;;;;;4.60;1.05;;;2.40;99.90;;;;;;5066992;28;20503;-65
2023/03/05 02:59:55;;;;;;;7.90;1.17;;;2.40;99.90;;;;;;5062258;28;20037;-65
2023/03/05 03:02:21;;;;;;;7.13;1.60;;;2.30;99.90;;;;;;5069016;28;20107;-65
2023/03/05 03:04:47;;;;;;;6.85;1.75;;;2.30;99.90;;;;;;5064938;28;20037;-65
2023/03/05 03:07:13;;;;;;;6.63;0.80;;;2.40;99.90;;;;;;5070210;28;20083;-65
2023/03/05 03:09:41;;;;;;;4.82;1.10;;;2.30;99.90;;;;;;5052478;28;20045;-65
2023/03/05 03:12:08;;;;;;;4.30;1.10;;;2.40;99.90;;;;;;5064211;28;20044;-64
2023/03/05 03:14:38;;;;;;;5.30;1.55;;;2.40;99.90;;;;;;5062951;28;20040;-65
2023/03/05 03:17:15;;;;;;;10.60;1.67;;;2.40;99.90;;;;;;5042226;28;20087;-65
2023/03/05 03:19:42;;;;;;;3.75;0.70;;;2.50;99.90;;;;;;5040451;28;20496;-65
2023/03/05 03:22:09;;;;;;;11.27;2.95;;;2.50;99.90;;;;;;5070640;28;20029;-65
2023/03/05 03:24:36;;;;;;;7.13;1.60;;;2.50;99.90;;;;;;5063413;28;20126;-65
2023/03/05 03:27:02;;;;;;;6.60;1.40;;;2.60;99.90;;;;;;5065005;28;20509;-65
2023/03/05 03:29:29;;;;;;;7.25;1.27;;;2.60;99.90;;;;;;5047699;28;20049;-65
2023/03/05 03:31:55;;;;;;;7.95;1.20;;;2.60;99.90;;;;;;5048766;28;20048;-64
2023/03/05 03:34:21;;;;;;;8.55;0.93;;;2.70;99.90;;;;;;5066571;28;20043;-65
2023/03/05 03:36:48;;;;;;;3.28;0.70;;;2.70;99.90;;;;;;5045430;28;20099;-65
2023/03/05 03:39:14;;;;;;;4.43;0.80;;;2.70;99.90;;;;;;5063164;28;20108;-65
2023/03/05 03:41:42;;;;;;;4.03;0.90;;;2.80;99.90;;;;;;5065591;28;20072;-65
2023/03/05 03:44:09;;;;;;;4.35;0.80;;;2.80;99.90;;;;;;5066225;28;20043;-65
2023/03/05 03:46:36;;;;;;;2.30;0.55;;;2.80;99.90;;;;;;5045603;28;20044;-65
2023/03/05 03:49:03;;;;;;;3.92;0.90;;;2.80;99.90;;;;;;5049601;28;20536;-65
2023/03/05 03:51:29;;;;;;;3.78;0.90;;;2.90;99.90;;;;;;5049665;28;20048;-65
2023/03/05 03:53:55;;;;;;;2.97;0.50;;;2.80;99.90;;;;;;5068852;28;20033;-65
2023/03/05 03:56:21;;;;;;;3.63;1.00;;;2.80;99.90;;;;;;5071287;28;20515;-65
2023/03/05 03:58:50;;;;;;;6.20;1.83;;;2.80;99.90;;;;;;5063160;28;20037;-65
2023/03/05 04:01:16;;;;;;;4.43;0.90;;;2.80;99.90;;;;;;5066687;28;20380;-65
2023/03/05 04:03:42;;;;;;;4.47;0.60;;;2.80;99.90;;;;;;5064353;28;20377;-65
2023/03/05 04:06:08;;;;;;;5.50;0.77;;;2.90;99.90;;;;;;5060388;28;20052;-64
2023/03/05 04:08:34;;;;;;;5.20;1.17;;;2.80;99.90;;;;;;5061525;28;20064;-65
2023/03/05 04:11:01;;;;;;;3.72;0.63;;;2.90;99.90;;;;;;5063901;28;20045;-65
2023/03/05 04:13:26;;;;;;;3.63;0.60;;;2.80;99.90;;;;;;5051820;28;20285;-65
2023/03/05 04:15:53;;;;;;;2.50;0.88;;;2.90;99.90;;;;;;5054860;28;20431;-65
2023/03/05 04:18:19;;;;;;;5.63;0.90;;;2.90;99.90;;;;;;5051200;28;20036;-66
2023/03/05 04:20:45;;;;;;;4.63;0.70;;;2.90;99.90;;;;;;5065174;28;20032;-67
2023/03/05 04:23:10;;;;;;;3.58;0.65;;;2.90;99.90;;;;;;5036442;28;20542;-66
2023/03/05 04:25:36;;;;;;;6.35;0.88;;;2.80;99.90;;;;;;5048376;28;20051;-66
2023/03/05 04:28:02;;;;;;;3.25;0.60;;;2.80;99.90;;;;;;5059633;28;20399;-66
2023/03/05 04:30:27;;;;;;;4.43;0.50;;;2.80;99.90;;;;;;5064223;28;20085;-66
2023/03/05 04:32:53;;;;;;;3.88;0.63;;;2.80;99.90;;;;;;5059285;28;20037;-66
2023/03/05 04:35:19;;;;;;;4.40;0.50;;;2.80;99.90;;;;;;5050471;28;20084;-66
2023/03/05 04:37:45;;;;;;;3.80;0.32;;;2.70;99.90;;;;;;5064786;28;20058;-66
2023/03/05 04:40:11;;;;;;;3.97;0.55;;;2.80;99.90;;;;;;5064524;28;20040;-66
2023/03/05 04:42:36;;;;;;;3.17;0.75;;;2.70;99.90;;;;;;5062939;28;20080;-67
2023/03/05 04:45:03;;;;;;;4.13;0.40;;;2.70;99.90;;;;;;5031380;28;20128;-66
2023/03/05 04:47:29;;;;;;;3.75;0.50;;;2.70;99.90;;;;;;5061042;28;20059;-67
2023/03/05 04:49:55;;;;;;;3.83;0.60;;;2.80;99.90;;;;;;5045664;28;20040;-68
2023/03/05 04:52:20;;;;;;;4.05;0.70;;;2.80;99.90;;;;;;5043944;28;20072;-68
2023/03/05 04:54:46;;;;;;;2.78;0.60;;;2.80;99.90;;;;;;5052514;28;20044;-67
2023/03/05 04:57:12;;;;;;;3.65;0.63;;;2.80;99.90;;;;;;5034891;28;20053;-68
2023/03/05 04:59:38;;;;;;;2.90;0.40;;;2.80;99.90;;;;;;5034772;28;20392;-67
2023/03/05 05:02:03;;;;;;;3.53;0.40;;;2.80;99.90;;;;;;5033776;28;20041;-67
2023/03/05 05:04:30;;;;;;;4.07;0.50;;;2.80;99.90;;;;;;5026665;28;20057;-67
2023/03/05 05:06:56;;;;;;;2.65;0.60;;;2.80;99.90;;;;;;5032772;28;20064;-67
2023/03/05 05:09:23;;;;;;;7.57;0.75;;;2.80;99.90;;;;;;5050336;28;20040;-67
2023/03/05 05:11:49;;;;;;;4.65;0.60;;;2.80;99.90;;;;;;5032471;28;20106;-67
2023/03/05 05:14:15;;;;;;;6.53;0.70;;;2.80;99.90;;;;;;5049814;28;20033;-67
2023/03/05 05:16:41;;;;;;;3.83;0.57;;;2.80;99.90;;;;;;5034806;28;20037;-67
2023/03/05 05:19:07;;;;;;;5.40;0.65;;;2.80;99.90;;;;;;5036943;28;20037;-67
2023/03/05 05:21:33;;;;;;;5.28;0.60;;;2.80;99.90;;;;;;5029878;28;20116;-67
2023/03/05 05:23:58;;;;;;;4.50;0.60;;;2.80;99.90;;;;;;5031730;28;20125;-67
2023/03/05 05:26:24;;;;;;;4.43;0.57;;;2.80;99.90;;;;;;5049312;28;20044;-67
2023/03/05 05:28:50;;;;;;;2.90;0.50;;;2.80;99.90;;;;;;5029904;28;20097;-68
2023/03/05 05:31:16;;;;;;;2.42;0.70;;;2.80;99.90;;;;;;5034274;28;20449;-68
2023/03/05 05:33:42;;;;;;;2.72;0.50;;;2.80;99.90;;;;;;5051302;28;20041;-67
2023/03/05 05:36:12;;;;;;;4.63;0.55;;;2.80;99.90;;;;;;5036306;28;20110;-67
2023/03/05 05:38:38;;;;;;;3.70;0.40;;;2.80;99.90;;;;;;5047196;28;20033;-67
2023/03/05 05:41:05;;;;;;;2.67;0.50;;;2.80;99.90;;;;;;5046403;28;20041;-67
2023/03/05 05:43:32;;;;;;;4.65;0.55;;;2.70;99.90;;;;;;5030899;28;20045;-67
2023/03/05 05:46:02;;;;;;;2.53;0.38;;;2.70;99.90;;;;;;5036668;28;20128;-67
2023/03/05 05:48:29;;;;;;;2.60;0.55;;;2.70;99.90;;;;;;5011527;28;20087;-67
2023/03/05 05:50:55;;;;;;;2.45;0.63;;;2.70;99.90;;;;;;5048159;28;20032;-67
2023/03/05 05:53:22;;;;;;;2.97;0.32;;;2.70;99.90;;;;;;5047987;28;20122;-67
2023/03/05 05:55:48;;;;;;;2.20;0.50;;;2.70;99.90;;;;;;5050888;28;20289;-67
2023/03/05 05:58:14;;;;;;;2.05;0.50;;;2.70;99.90;;;;;;5044289;28;20037;-67
2023/03/05 06:00:39;;;;;;;1.52;0.50;;;2.60;99.90;;;;;;5040850;28;20127;-67
2023/03/05 06:03:06;;;;;;;2.65;0.70;;;2.60;99.90;;;;;;5045232;28;20043;-67
2023/03/05 06:05:32;;;;;;;4.25;0.90;;;2.60;99.90;;;;;;5045961;28;20044;-67
2023/03/05 06:07:58;;;;;;;3.92;0.65;;;2.60;99.90;;;;;;5082092;28;20058;-67
2023/03/05 06:10:24;;;;;;;6.05;0.60;;;2.50;99.90;;;;;;5060346;28;20484;-67
2023/03/05 06:12:50;;;;;;;3.03;0.80;;;2.50;99.90;;;;;;5084854;28;20081;-67
2023/03/05 06:15:16;;;;;;;6.22;0.90;;;2.50;99.90;;;;;;5068560;28;20463;-67
2023/03/05 06:17:41;;;;;;;3.97;0.90;;;2.50;99.90;;;;;;5085825;28;20033;-67
2023/03/05 06:20:08;;;;;;;6.70;1.13;;;2.50;99.90;;;;;;5059712;28;20040;-67
2023/03/05 06:22:38;;;;;;;4.30;0.90;;;2.50;99.90;;;;;;5068379;28;20040;-67
2023/03/05 06:25:06;;;;;;;5.25;1.10;;;2.50;99.90;;;;;;5067524;28;20119;-67
2023/03/05 06:27:34;;;;;;;3.85;0.88;;;2.60;99.90;;;;;;5062377;28;20117;-67
2023/03/05 06:30:00;;;;;;;5.45;0.80;;;2.60;99.90;;;;;;5083649;28;20624;-67
2023/03/05 06:32:26;;;;;;;7.85;0.95;;;2.60;99.90;;;;;;5080111;28;20028;-67
2023/03/05 06:34:51;;;;;;;2.08;0.80;;;2.60;99.90;;;;;;5067520;28;20109;-67
2023/03/05 06:37:17;;;;;;;3.85;0.85;;;2.60;99.90;;;;;;5062527;28;20041;-66
2023/03/05 06:39:43;;;;;;;6.65;1.38;;;2.70;99.90;;;;;;5066387;28;20032;-67
2023/03/05 06:42:09;;;;;;;5.32;0.90;;;2.70;99.90;;;;;;5066922;28;20037;-66
2023/03/05 06:44:40;;;;;;;3.65;0.80;;;2.70;99.90;;;;;;5086693;28;20047;-66
2023/03/05 06:47:09;;;;;;;5.25;0.88;;;2.70;99.90;;;;;;5078694;28;20039;-66
2023/03/05 06:49:36;;;;;;;5.10;0.60;;;2.70;99.90;;;;;;5086020;28;20052;-66
2023/03/05 06:52:02;;;;;;;4.60;0.60;;;2.70;99.90;;;;;;5082192;28;20043;-66
2023/03/05 06:54:28;;;;;;;6.65;0.80;;;2.70;99.90;;;;;;5084526;28;20052;-66
2023/03/05 06:56:54;;;;;;;5.82;0.82;;;2.70;99.90;;;;;;5081582;28;20105;-67
2023/03/05 06:59:20;;;;;;;5.13;0.68;;;2.70;99.90;;;;;;5076606;28;20094;-67
2023/03/05 07:01:49;;;;;;;3.15;0.45;;;2.70;99.90;;;;;;5079278;28;20496;-66
2023/03/05 07:04:16;;;;;;;4.18;0.60;;;2.70;99.90;;;;;;5064656;28;20040;-66
2023/03/05 07:06:42;;;;;;;3.42;0.60;;;2.70;99.90;;;;;;5060683;28;20106;-66
2023/03/05 07:09:12;;;;;;;2.58;0.60;;;2.70;99.90;;;;;;5069186;28;20031;-66
2023/03/05 07:11:38;;;;;;;5.82;0.55;;;2.70;99.90;;;;;;5070597;28;20043;-66
2023/03/05 07:14:04;;;;;;;4.38;0.60;;;2.70;99.90;;;;;;5071346;28;20479;-66
2023/03/05 07:16:32;;;;;;;2.20;0.47;;;2.80;99.90;;;;;;5063758;28;20052;-66
2023/03/05 07:18:59;;;;;;;2.13;0.50;;;2.80;99.90;;;;;;5087074;28;20033;-66
2023/03/05 07:21:27;;;;;;;4.72;0.60;;;2.80;99.90;;;;;;5083006;28;20124;-66
2023/03/05 07:23:57;;;;;;;4.63;0.77;;;2.80;99.90;;;;;;5063469;28;20040;-66
2023/03/05 07:26:24;;;;;;;8.25;0.90;;;2.90;99.90;;;;;;5087580;28;20044;-66
2023/03/05 07:28:50;;;;;;;8.02;0.85;;;2.90;99.90;;;;;;5070207;28;20052;-66
2023/03/05 07:31:19;;;;;;;8.65;0.98;;;3.00;99.90;;;;;;5072007;28;20044;-66
2023/03/05 07:33:46;;;;;;;5.95;1.10;;;3.00;99.90;;;;;;5071612;28;20040;-66
2023/03/05 07:36:13;;;;;;;5.63;1.00;;;3.10;99.90;;;;;;5085253;28;20056;-66
2023/03/05 07:38:39;;;;;;;5.95;1.20;;;3.20;99.90;;;;;;5055479;28;20652;-66
2023/03/05 07:41:11;;;;;;;31.88;24.67;;;3.40;99.90;;;;;;5085968;28;20032;-66
2023/03/05 07:43:37;;;;;;;6.78;1.60;;;3.60;99.90;;;;;;5084303;28;20040;-66
2023/03/05 07:46:08;;;;;;;4.95;1.38;;;3.80;99.90;;;;;;5068895;28;20553;-66
2023/03/05 07:48:34;;;;;;;4.88;1.15;;;4.00;99.90;;;;;;5088193;28;20483;-66
2023/03/05 07:51:06;;;;;;;6.05;1.30;;;4.20;99.90;;;;;;5069737;28;20078;-66
2023/03/05 07:53:33;;;;;;;9.45;1.33;;;4.40;99.90;;;;;;5069547;28;22159;-66
2023/03/05 07:55:59;;;;;;;5.07;1.20;;;4.50;99.90;;;;;;5065100;28;20040;-66
2023/03/05 07:58:25;;;;;;;6.35;1.10;;;4.50;99.90;;;;;;5067774;28;20043;-66
2023/03/05 08:00:51;;;;;;;4.53;1.00;;;4.50;99.90;;;;;;5075801;28;20047;-67
2023/03/05 08:03:17;;;;;;;4.63;1.10;;;4.60;99.90;;;;;;5052649;28;20388;-67
2023/03/05 08:05:42;;;;;;;5.90;1.05;;;4.80;99.90;;;;;;5069363;28;20037;-66
2023/03/05 08:08:08;;;;;;;4.53;0.95;;;5.10;99.90;;;;;;5083889;28;20034;-66
2023/03/05 08:10:35;;;;;;;5.43;0.90;;;5.60;99.90;;;;;;5070655;28;20051;-66
2023/03/05 08:13:01;;;;;;;6.00;1.15;;;6.00;99.90;;;;;;5081848;28;20036;-67
2023/03/05 08:15:27;;;;;;;4.55;0.85;;;6.60;99.90;;;;;;5069717;28;20516;-67
2023/03/05 08:17:53;;;;;;;4.10;0.80;;;6.80;99.90;;;;;;5067495;28;20036;-67
2023/03/05 08:20:19;;;;;;;4.38;0.90;;;6.90;99.90;;;;;;5066771;28;20560;-68
2023/03/05 08:22:45;;;;;;;7.63;0.82;;;7.00;99.90;;;;;;5059820;28;20503;-66
2023/03/05 08:25:11;;;;;;;3.55;0.73;;;7.20;99.90;;;;;;5065887;28;20472;-66
2023/03/05 08:27:43;;;;;;;6.50;0.95;;;7.40;99.90;;;;;;5082410;28;20116;-66
2023/03/05 08:30:12;;;;;;;3.15;0.60;;;7.60;99.90;;;;;;5084298;28;20105;-67
2023/03/05 08:32:38;;;;;;;5.20;0.77;;;7.70;99.90;;;;;;5087579;28;20032;-67
2023/03/05 08:35:05;;;;;;;3.40;0.65;;;7.90;99.90;;;;;;5078436;28;20047;-67
2023/03/05 08:37:32;;;;;;;3.80;0.90;;;8.20;99.90;;;;;;5071540;28;20031;-67
2023/03/05 08:39:58;;;;;;;7.53;1.15;;;8.80;99.90;;;;;;5086966;28;20437;-67
2023/03/05 08:42:24;;;;;;;2.78;0.55;;;9.10;99.90;;;;;;5066494;28;20098;-66
2023/03/05 08:44:50;;;;;;;29.98;19.45;;;9.00;99.90;;;;;;5083455;28;20032;-67
2023/03/05 08:47:17;;;;;;;12.43;5.72;;;9.20;99.90;;;;;;5066241;28;20551;-67
2023/03/05 08:49:43;;;;;;;5.60;1.30;;;9.20;99.90;;;;;;5082812;28;20100;-67
2023/03/05 08:52:09;;;;;;;5.22;0.90;;;8.90;99.90;;;;;;5069261;28;20433;-67
2023/03/05 08:54:36;;;;;;;5.10;0.80;;;9.00;99.90;;;;;;5081962;28;20056;-68
2023/03/05 08:57:02;;;;;;;6.35;0.65;;;9.50;99.90;;;;;;5064639;28;20373;-67
2023/03/05 08:59:34;;;;;;;3.92;0.70;;;9.60;99.90;;;;;;5062714;28;20052;-67
2023/03/05 09:02:16;;;;;;;4.63;0.88;;;9.70;99.90;;;;;;5067787;28;20125;-67
2023/03/05 09:04:52;;;;;;;7.05;0.70;;;10.00;99.90;;;;;;5067143;28;20040;-67
2023/03/05 09:07:26;;;;;;;4.32;0.90;;;10.00;99.90;;;;;;5042174;28;20484;-67
2023/03/05 09:10:00;;;;;;;5.45;0.88;;;10.20;99.90;;;;;;5058142;28;20155;-67
2023/03/05 09:12:30;;;;;;;5.05;0.70;;;10.50;99.90;;;;;;5061192;28;20067;-67
2023/03/05 09:14:56;;;;;;;5.55;0.73;;;11.20;99.90;;;;;;5066613;28;20087;-67
2023/03/05 09:17:23;;;;;;;5.55;0.70;;;11.50;99.90;;;;;;5063498;28;20051;-67
2023/03/05 09:19:49;;;;;;;7.88;1.17;;;11.70;99.90;;;;;;5055596;28;20533;-65
2023/03/05 09:22:15;;;;;;;5.57;0.90;;;11.70;99.90;;;;;;5046230;28;20066;-66
2023/03/05 09:24:42;;;;;;;5.70;0.98;;;11.50;99.90;;;;;;5039335;28;20045;-66
2023/03/05 09:27:08;;;;;;;8.85;0.73;;;11.00;99.90;;;;;;5029123;28;20159;-66
2023/03/05 09:29:33;;;;;;;7.40;1.20;;;10.80;99.90;;;;;;5059419;28;20461;-66
2023/03/05 09:31:59;;;;;;;7.57;0.75;;;10.70;99.90;;;;;;5047337;28;20379;-66
2023/03/05 09:34:25;;;;;;;6.15;0.63;;;10.60;99.90;;;;;;5045185;28;20506;-66
2023/03/05 09:36:51;;;;;;;6.50;0.90;;;10.70;99.90;;;;;;5068711;28;20051;-66
2023/03/05 09:39:16;;;;;;;32.63;24.50;;;11.20;99.90;;;;;;5064456;28;20468;-66
2023/03/05 09:42:06;;;;;;;9.18;1.25;;;11.30;99.90;;;;;;5060884;28;20539;-66
2023/03/05 09:44:56;;;;;;;6.78;0.77;;;11.60;99.90;;;;;;5059875;28;20033;-67
2023/03/05 09:47:56;;;;;;;5.50;0.90;;;12.10;99.90;;;;;;5047289;28;20041;-67
2023/03/05 09:50:31;;;;;;;5.35;0.98;;;12.40;99.90;;;;;;5054705;28;20075;-67
2023/03/05 09:53:05;;;;;;;5.38;1.02;;;12.20;99.90;;;;;;5068892;28;20054;-67
2023/03/05 09:55:39;;;;;;;4.90;0.60;;;11.40;99.90;;;;;;5062072;28;20618;-67
2023/03/05 09:58:18;;;;;;;5.88;1.05;;;10.60;99.90;;;;;;5039550;28;20060;-67
2023/03/05 10:00:49;;;;;;;5.65;0.57;;;10.40;99.90;;;;;;5058731;28;20040;-67
2023/03/05 10:03:32;;;;;;;6.50;0.82;;;10.70;99.90;;;;;;5062355;28;20489;-67
2023/03/05 10:06:10;;;;;;;6.47;0.63;;;11.20;99.90;;;;;;5058437;28;20041;-67
2023/03/05 10:08:48;;;;;;;4.55;0.50;;;11.30;99.90;;;;;;5058889;28;20506;-67
2023/03/05 10:11:54;;;;;;;7.18;0.70;;;11.20;99.90;;;;;;5064566;28;20474;-67
2023/03/05 10:14:37;;;;;;;6.00;0.60;;;11.40;99.90;;;;;;5030050;28;20116;-67
2023/03/05 10:17:21;;;;;;;4.00;0.63;;;10.80;99.90;;;;;;5057023;28;20045;-67
2023/03/05 10:20:00;;;;;;;6.75;0.50;;;10.50;99.90;;;;;;5043510;28;20091;-67
2023/03/05 10:22:35;;;;;;;6.13;0.75;;;10.10;99.90;;;;;;5050650;28;20052;-67
2023/03/05 10:25:13;;;;;;;4.25;0.60;;;10.20;99.90;;;;;;5046208;28;20070;-67
2023/03/05 10:27:48;;;;;;;7.35;0.85;;;10.50;99.90;;;;;;5045581;28;20046;-67
2023/03/05 10:30:16;;;;;;;4.47;0.60;;;10.50;99.90;;;;;;5049193;28;20144;-67
2023/03/05 10:32:59;;;;;;;4.93;0.68;;;11.40;99.90;;;;;;5061677;28;20032;-67
2023/03/05 10:35:39;;;;;;;4.80;0.60;;;11.80;99.90;;;;;;5046953;28;20048;-67
2023/03/05 10:38:05;;;;;;;6.03;0.60;;;11.90;99.90;;;;;;5059662;28;20037;-67
2023/03/05 10:40:51;;;;;;;4.88;0.57;;;11.80;99.90;;;;;;5060272;28;20740;-67
2023/03/05 10:43:49;;;;;;;5.55;0.52;;;11.70;99.90;;;;;;5045975;28;20078;-67
2023/03/05 10:46:17;;;;;;;4.82;0.60;;;11.30;99.90;;;;;;5040381;28;20382;-67
2023/03/05 10:48:52;;;;;;;3.58;0.40;;;10.70;99.90;;;;;;5068116;28;20051;-67
2023/03/05 10:51:37;;;;;;;5.93;0.77;;;10.60;99.90;;;;;;5048186;28;20051;-67
2023/03/05 10:54:28;;;;;;;7.03;0.70;;;10.30;99.90;;;;;;5067741;28;20045;-67
2023/03/05 10:57:19;;;;;;;4.25;0.55;;;9.80;99.90;;;;;;5052382;28;20056;-67
2023/03/05 10:59:56;;;;;;;5.95;0.40;;;9.00;99.90;;;;;;5049536;28;20496;-67
2023/03/05 11:02:22;;;;;;;3.55;0.63;;;8.50;99.90;;;;;;5045025;28;20119;-67
2023/03/05 11:04:49;;;;;;;3.05;0.60;;;7.70;99.90;;;;;;5050980;28;20039;-67
2023/03/05 11:07:15;;;;;;;3.63;0.30;;;7.20;99.90;;;;;;5048061;28;20376;-67
2023/03/05 11:09:42;;;;;;;3.33;0.40;;;6.80;99.90;;;;;;5063416;28;20040;-68
2023/03/05 11:12:13;;;;;;;3.05;0.25;;;6.50;99.90;;;;;;5071475;28;20043;-68
2023/03/05 11:14:46;;;;;;;2.72;0.40;;;6.20;99.90;;;;;;5049054;28;20103;-68
2023/03/05 11:17:26;;;;;;;2.13;0.22;;;6.00;99.90;;;;;;5069695;28;20045;-69
2023/03/05 11:19:52;;;;;;;3.38;0.30;;;5.80;99.90;;;;;;5050279;28;20044;-69
2023/03/05 11:22:21;;;;;;;4.20;0.65;;;5.80;99.90;;;;;;5067565;28;20070;-70
2023/03/05 11:25:17;;;;;;;4.25;0.32;;;5.70;99.90;;;;;;5054722;28;20043;-70
2023/03/05 11:27:53;;;;;;;4.47;0.40;;;5.60;99.90;;;;;;5052634;28;20433;-69
2023/03/05 11:30:31;;;;;;;3.92;0.52;;;5.70;99.90;;;;;;5068348;28;20040;-69
2023/03/05 11:33:19;;;;;;;4.82;0.80;;;5.80;99.90;;;;;;5048341;28;20193;-70
2023/03/05 11:35:46;;;;;;;5.30;0.50;;;6.00;99.90;;;;;;5057361;28;20056;-69
2023/03/05 11:38:17;;;;;;;5.63;0.63;;;6.20;99.90;;;;;;5052848;28;20369;-69
2023/03/05 11:40:43;;;;;;;3.13;0.43;;;6.50;99.90;;;;;;5048617;28;20120;-70
2023/03/05 11:43:18;;;;;;;3.58;0.43;;;6.70;99.90;;;;;;5047749;28;20047;-68
2023/03/05 11:45:46;;;;;;;3.30;0.40;;;7.10;99.90;;;;;;5050534;28;20036;-70
2023/03/05 11:48:26;;;;;;;4.32;0.55;;;7.50;99.90;;;;;;5049238;28;20080;-71
2023/03/05 11:50:56;;;;;;;4.40;0.60;;;8.00;99.90;;;;;;5051004;28;20555;-69
2023/03/05 11:53:28;;;;;;;3.65;0.57;;;8.70;99.90;;;;;;5050638;28;20396;-69
2023/03/05 11:55:59;;;;;;;5.18;0.85;;;9.30;99.90;;;;;;5051944;28;20041;-69
2023/03/05 11:58:47;;;;;;;3.63;0.50;;;9.70;99.90;;;;;;5035519;28;20473;-69
2023/03/05 12:01:29;;;;;;;5.55;0.50;;;9.80;99.90;;;;;;5065677;28;20404;-69
2023/03/05 12:03:55;;;;;;;5.07;1.08;;;10.00;99.90;;;;;;5046750;28;20033;-69
2023/03/05 12:06:47;;;;;;;4.05;0.55;;;10.00;99.90;;;;;;5044466;28;20048;-69
2023/03/05 12:09:39;;;;;;;5.78;0.90;;;10.10;99.90;;;;;;5047573;28;20048;-69
2023/03/05 12:12:20;;;;;;;6.55;0.75;;;10.40;99.90;;;;;;5055800;28;20439;-69
2023/03/05 12:15:06;;;;;;;4.45;0.90;;;10.80;99.90;;;;;;5051962;28;20449;-69
2023/03/05 12:17:38;;;;;;;4.60;0.45;;;10.90;99.90;;;;;;5050818;28;20049;-69
2023/03/05 12:20:15;;;;;;;4.80;0.60;;;11.00;99.90;;;;;;5044306;28;20071;-69
2023/03/05 12:22:43;;;;;;;6.70;0.80;;;11.10;99.90;;;;;;5045964;28;20037;-69
2023/03/05 12:25:31;;;;;;;2.75;0.50;;;11.00;99.90;;;;;;5051744;28;20045;-69
2023/03/05 12:27:57;;;;;;;4.43;0.47;;;11.10;99.90;;;;;;5050706;28;20099;-69
2023/03/05 12:30:40;;;;;;;4.97;0.70;;;11.10;99.90;;;;;;5048210;28;20044;-69
2023/03/05 12:33:40;;;;;;;4.50;0.75;;;11.30;99.90;;;;;;5065716;28;20063;-69
2023/03/05 12:36:21;;;;;;;3.00;0.35;;;11.60;99.90;;;;;;5061448;28;20045;-69
2023/03/05 12:38:50;;;;;;;3.13;0.65;;;12.00;99.90;;;;;;5051625;28;20492;-69
2023/03/05 12:41:35;;;;;;;3.05;0.60;;;12.60;99.90;;;;;;5058309;28;20032;-69
2023/03/05 12:44:04;;;;;;;4.30;0.60;;;13.00;99.90;;;;;;5048391;28;20040;-69
2023/03/05 12:46:36;;;;;;;5.90;0.98;;;12.70;99.90;;;;;;5052008;28;20045;-69
2023/03/05 12:49:17;;;;;;;3.63;0.40;;;12.00;99.90;;;;;;5051008;28;20480;-69
2023/03/05 12:51:45;;;;;;;1.38;0.30;;;10.70;99.90;;;;;;5050302;28;20044;-69
2023/03/05 12:54:34;;;;;;;4.30;0.40;;;9.70;99.90;;;;;;5071007;28;20098;-68
2023/03/05 12:57:20;;;;;;;2.03;0.30;;;8.80;99.90;;;;;;5085991;28;20056;-68
2023/03/05 13:00:00;;;;;;;5.65;0.30;;;8.30;99.90;;;;;;5069677;28;20047;-68
2023/03/05 13:02:34;;;;;;;2.35;0.40;;;8.00;99.90;;;;;;5072929;28;20043;-68
2023/03/05 13:05:07;;;;;;;2.13;0.30;;;7.70;99.90;;;;;;5066712;28;20043;-68
2023/03/05 13:07:32;;;;;;;5.50;0.40;;;8.00;99.90;;;;;;5070109;28;20033;-69